Time;durP1;ratioP1;P1;durP2;ratioP2;P2;SDS_P1;SDS_P2;PMS_P1;PMS_P2;Temp;Humidity;BMP_temperature;BMP_pressure;BME280_temperature;BME280_humidity;BME280_pressure;Samples;Min_cycle;Max_cycle;Signal;HPM_P1;HPM_P2
2023/03/28 00:01:51;;;;;;;7.93;2.20;;;;;;;1.24;100.00;101032.13;5063830;28;20224;-60
2023/03/28 00:04:21;;;;;;;7.20;2.23;;;;;;;1.26;100.00;101033.00;5073303;28;20200;-60
2023/03/28 00:06:47;;;;;;;4.93;1.77;;;;;;;1.20;100.00;101035.53;5071654;28;20175;-59
2023/03/28 00:09:12;;;;;;;5.20;2.40;;;;;;;1.21;100.00;101045.66;5072239;28;20573;-61
2023/03/28 00:11:37;;;;;;;6.20;2.47;;;;;;;1.13;100.00;101048.19;5074380;28;20220;-59
2023/03/28 00:14:04;;;;;;;5.70;2.33;;;;;;;0.99;100.00;101044.81;5072326;28;20678;-60
2023/03/28 00:16:36;;;;;;;5.20;1.70;;;;;;;1.06;100.00;101043.97;5061023;28;20226;-60
2023/03/28 00:19:06;;;;;;;7.53;2.00;;;;;;;1.00;100.00;101051.56;5071729;28;20204;-61
2023/03/28 00:21:34;;;;;;;6.20;2.70;;;;;;;1.08;100.00;101054.09;5063586;28;20220;-60
2023/03/28 00:24:02;;;;;;;7.80;3.17;;;;;;;1.11;100.00;101054.13;5070046;28;20661;-60
2023/03/28 00:26:34;;;;;;;4.83;2.30;;;;;;;1.08;100.00;101049.03;5060971;28;20173;-60
2023/03/28 00:29:01;;;;;;;5.70;2.23;;;;;;;1.14;100.00;101059.16;5069427;28;20345;-59
2023/03/28 00:31:28;;;;;;;4.93;2.00;;;;;;;1.09;100.00;101054.13;5063560;28;20326;-60
2023/03/28 00:33:54;;;;;;;3.93;2.00;;;;;;;1.07;100.00;101058.34;5069590;28;20209;-59
2023/03/28 00:36:25;;;;;;;4.67;2.13;;;;;;;1.11;100.00;101054.13;5070744;28;20227;-59
2023/03/28 00:38:57;;;;;;;9.07;2.83;;;;;;;1.07;100.00;101062.56;5071689;28;20183;-59
2023/03/28 00:41:25;;;;;;;3.63;2.17;;;;;;;1.11;100.00;101064.25;5063288;28;20586;-60
2023/03/28 00:43:54;;;;;;;6.93;2.57;;;;;;;1.04;100.00;101068.50;5070221;28;20277;-60
2023/03/28 00:46:35;;;;;;;6.30;1.90;;;;;;;1.06;100.00;101065.94;5070155;28;20189;-60
2023/03/28 00:49:11;;;;;;;6.03;2.30;;;;;;;1.03;100.00;101064.25;5071956;28;20228;-61
2023/03/28 00:51:40;;;;;;;5.13;2.40;;;;;;;1.11;100.00;101066.78;5063110;28;20738;-60
2023/03/28 00:54:11;;;;;;;8.43;2.47;;;;;;;0.96;100.00;101067.63;5069725;28;20201;-59
2023/03/28 00:56:40;;;;;;;4.30;2.00;;;;;;;1.05;100.00;101069.31;5070988;28;20185;-59
2023/03/28 00:59:09;;;;;;;3.03;1.93;;;;;;;1.02;100.00;101072.69;5070366;28;20186;-60
2023/03/28 01:01:35;;;;;;;7.40;2.73;;;;;;;0.88;100.00;101071.84;5060581;28;20605;-60
2023/03/28 01:04:01;;;;;;;5.10;2.20;;;;;;;0.88;100.00;101070.16;5074541;28;20200;-60
2023/03/28 01:06:31;;;;;;;7.90;2.50;;;;;;;0.88;100.00;101076.91;5070113;28;20177;-59
2023/03/28 01:08:58;;;;;;;5.70;2.03;;;;;;;0.87;100.00;101075.22;5072708;28;20305;-59
2023/03/28 01:11:23;;;;;;;6.30;2.20;;;;;;;0.82;100.00;101077.75;5069613;28;20232;-59
2023/03/28 01:13:50;;;;;;;6.10;1.67;;;;;;;0.80;100.00;101071.84;5082595;28;20196;-60
2023/03/28 01:16:18;;;;;;;8.13;2.60;;;;;;;0.80;100.00;101066.75;5076907;28;20265;-60
2023/03/28 01:18:50;;;;;;;4.23;2.23;;;;;;;0.77;100.00;101074.34;5077939;28;20207;-61
2023/03/28 01:21:52;;;;;;;4.67;2.50;;;;;;;0.69;100.00;101074.34;5069985;28;20582;-59
2023/03/28 01:24:51;;;;;;;6.77;2.13;;;;;;;0.60;100.00;101076.88;5078824;28;20699;-60
2023/03/28 01:27:28;;;;;;;8.00;2.40;;;;;;;0.68;100.00;101080.25;5076736;28;20177;-59
2023/03/28 01:30:16;;;;;;;11.27;2.43;;;;;;;0.71;100.00;101079.41;5076607;28;20250;-61
2023/03/28 01:33:01;;;;;;;7.70;2.30;;;;;;;0.55;100.00;101083.59;5049702;28;20208;-60
2023/03/28 01:35:47;;;;;;;4.77;2.20;;;;;;;0.59;100.00;101087.81;5077846;28;20177;-60
2023/03/28 01:42:13;;;;;;;5.77;2.47;;;;;;;0.50;100.00;101091.19;5078246;28;20330;-60
2023/03/28 01:44:52;;;;;;;5.43;2.33;;;;;;;0.49;100.00;101089.47;5076973;28;20204;-59
2023/03/28 01:47:38;;;;;;;8.33;2.77;;;;;;;0.46;100.00;101089.50;5076709;28;20245;-60
2023/03/28 01:50:13;;;;;;;8.30;3.23;;;;;;;0.48;100.00;101092.84;5067748;28;20333;-61
2023/03/28 01:53:06;;;;;;;7.53;2.60;;;;;;;0.41;100.00;101091.13;5062372;28;20183;-62
2023/03/28 01:55:44;;;;;;;6.43;2.93;;;;;;;0.43;100.00;101094.53;5068967;28;20180;-60
2023/03/28 01:58:49;;;;;;;5.17;2.57;;;;;;;0.34;100.00;101099.56;5076317;28;20181;-60
2023/03/28 02:01:22;;;;;;;10.10;2.67;;;;;;;0.40;100.00;101097.06;5068351;28;20562;-59
2023/03/28 02:03:55;;;;;;;6.37;2.47;;;;;;;0.38;100.00;101107.16;5076077;28;20200;-59
2023/03/28 02:06:22;;;;;;;6.70;2.60;;;;;;;0.43;100.00;101102.13;5076119;28;20552;-60
2023/03/28 02:08:49;;;;;;;4.87;2.80;;;;;;;0.46;100.00;101102.97;5076176;28;20320;-59
2023/03/28 02:11:15;;;;;;;9.50;2.83;;;;;;;0.40;100.00;101102.13;5069073;28;20223;-61
2023/03/28 02:13:52;;;;;;;9.37;3.27;;;;;;;0.36;100.00;101101.28;5075598;28;20227;-61
2023/03/28 02:16:21;;;;;;;7.00;3.40;;;;;;;0.30;100.00;101097.00;5077414;28;20176;-59
2023/03/28 02:18:53;;;;;;;11.67;3.10;;;;;;;0.26;100.00;101095.31;5090936;28;20473;-59
2023/03/28 02:21:24;;;;;;;6.93;2.50;;;;;;;0.10;100.00;101098.59;5066171;28;20553;-59
2023/03/28 02:23:52;;;;;;;8.17;2.47;;;;;;;0.14;100.00;101087.69;5072321;28;20703;-59
2023/03/28 02:26:20;;;;;;;8.90;2.53;;;;;;;0.06;100.00;101091.84;5072866;28;20200;-60
2023/03/28 02:28:51;;;;;;;7.83;2.53;;;;;;;-0.02;100.00;101089.28;5072851;28;20180;-59
2023/03/28 02:31:16;;;;;;;6.20;2.57;;;;;;;-0.04;100.00;101084.22;5065868;28;20223;-60
2023/03/28 02:33:45;;;;;;;8.37;3.43;;;;;;;-0.04;100.00;101086.75;5079273;28;20169;-59
2023/03/28 02:36:10;;;;;;;7.43;2.50;;;;;;;-0.06;100.00;101080.00;5072799;28;20259;-61
2023/03/28 02:39:00;;;;;;;8.97;2.80;;;;;;;-0.19;100.00;101077.41;5073552;28;20189;-61
2023/03/28 02:42:03;;;;;;;9.93;2.77;;;;;;;-0.33;100.00;101077.31;5068274;28;20294;-59
2023/03/28 02:45:05;;;;;;;4.80;2.30;;;;;;;-0.35;100.00;101085.72;5073621;28;20192;-59
2023/03/28 02:47:33;;;;;;;7.40;2.60;;;;;;;-0.29;100.00;101080.69;5064504;28;20556;-58
2023/03/28 02:50:12;;;;;;;10.87;3.43;;;;;;;-0.40;100.00;101075.56;5073348;28;20782;-62
2023/03/28 02:52:49;;;;;;;9.37;2.57;;;;;;;-0.35;100.00;101076.47;5041692;28;20548;-59
2023/03/28 02:55:43;;;;;;;5.00;2.60;;;;;;;-0.42;100.00;101079.78;5059963;28;20176;-59
2023/03/28 02:58:20;;;;;;;8.23;2.93;;;;;;;-0.40;100.00;101077.25;5072400;28;20199;-61
2023/03/28 03:00:47;;;;;;;5.77;2.10;;;;;;;-0.38;100.00;101076.44;5054878;28;20285;-60
2023/03/28 03:03:12;;;;;;;5.63;2.33;;;;;;;-0.39;100.00;101084.84;5071238;28;20192;-59
2023/03/28 03:05:38;;;;;;;9.10;2.30;;;;;;;-0.44;100.00;101088.19;5072296;28;20181;-59
2023/03/28 03:08:03;;;;;;;8.10;2.60;;;;;;;-0.46;100.00;101085.63;5072960;28;20371;-59
2023/03/28 03:10:29;;;;;;;8.03;3.07;;;;;;;-0.47;100.00;101080.56;5066918;28;20243;-61
2023/03/28 03:12:54;;;;;;;9.07;2.83;;;;;;;-0.48;100.00;101074.69;5085004;28;20650;-61
2023/03/28 03:15:20;;;;;;;6.77;3.07;;;;;;;-0.46;100.00;101073.00;5065482;28;20179;-60
2023/03/28 03:17:45;;;;;;;6.97;2.80;;;;;;;-0.50;100.00;101074.69;5086398;28;20180;-60
2023/03/28 03:20:11;;;;;;;6.13;2.70;;;;;;;-0.46;100.00;101079.75;5064073;28;20177;-59
2023/03/28 03:22:36;;;;;;;7.27;2.90;;;;;;;-0.54;100.00;101082.22;5070734;28;20251;-59
2023/03/28 03:25:05;;;;;;;5.70;2.63;;;;;;;-0.50;100.00;101083.94;5073016;28;20204;-59
2023/03/28 03:27:32;;;;;;;8.03;2.80;;;;;;;-0.56;100.00;101084.75;5066752;28;20220;-60
2023/03/28 03:29:57;;;;;;;7.87;3.00;;;;;;;-0.52;100.00;101085.59;5078647;28;20235;-59
2023/03/28 03:32:23;;;;;;;6.37;2.50;;;;;;;-0.57;100.00;101087.25;5038462;28;20314;-59
2023/03/28 03:34:48;;;;;;;5.70;2.27;;;;;;;-0.57;100.00;101089.78;5066143;28;20531;-60
2023/03/28 03:37:16;;;;;;;11.90;2.83;;;;;;;-0.52;100.00;101085.59;5072653;28;20192;-60
2023/03/28 03:39:43;;;;;;;6.00;2.30;;;;;;;-0.48;100.00;101087.31;5072867;28;20204;-60
2023/03/28 03:42:09;;;;;;;7.53;2.13;;;;;;;-0.55;100.00;101088.94;5063573;28;20255;-60
2023/03/28 03:44:34;;;;;;;8.40;2.80;;;;;;;-0.50;100.00;101089.00;5064491;28;20385;-66
2023/03/28 03:46:59;;;;;;;6.40;2.50;;;;;;;-0.57;100.00;101088.09;5059300;28;20181;-60
2023/03/28 03:49:25;;;;;;;3.87;2.40;;;;;;;-0.57;100.00;101092.31;5072565;28;20177;-64
2023/03/28 03:51:50;;;;;;;14.83;2.97;;;;;;;-0.57;100.00;101097.34;5076095;28;20640;-59
2023/03/28 03:54:15;;;;;;;6.60;2.00;;;;;;;-0.58;100.00;101095.66;5073675;28;20640;-60
2023/03/28 03:56:41;;;;;;;7.37;2.40;;;;;;;-0.57;100.00;101099.88;5072584;28;20185;-59
2023/03/28 03:59:06;;;;;;;13.20;2.97;;;;;;;-0.55;100.00;101096.53;5072572;28;20176;-60
2023/03/28 04:01:32;;;;;;;7.47;2.30;;;;;;;-0.61;100.00;101106.59;5073690;28;20220;-59
2023/03/28 04:03:58;;;;;;;6.37;2.43;;;;;;;-0.68;100.00;101104.88;5075726;28;20201;-60
2023/03/28 04:06:23;;;;;;;8.70;3.10;;;;;;;-0.79;100.00;101098.88;5071963;28;20246;-59
2023/03/28 04:08:50;;;;;;;9.07;2.67;;;;;;;-0.77;100.00;101094.69;5072150;28;20225;-59
2023/03/28 04:11:16;;;;;;;8.87;2.80;;;;;;;-0.81;100.00;101103.91;5063844;28;20224;-59
2023/03/28 04:13:41;;;;;;;10.40;3.00;;;;;;;-0.76;100.00;101106.47;5070325;28;20245;-59
2023/03/28 04:16:07;;;;;;;13.73;2.83;;;;;;;-0.80;100.00;101109.81;5071977;28;20185;-59
2023/03/28 04:18:33;;;;;;;5.63;2.50;;;;;;;-0.80;100.00;101103.09;5071983;28;20548;-59
2023/03/28 04:21:01;;;;;;;10.37;2.77;;;;;;;-0.83;100.00;101108.97;5068965;28;20242;-60
2023/03/28 04:23:27;;;;;;;6.77;3.47;;;;;;;-0.91;100.00;101122.34;5070215;28;20564;-59
2023/03/28 04:25:56;;;;;;;9.80;2.80;;;;;;;-0.96;100.00;101121.47;5070616;28;20177;-59
2023/03/28 04:28:24;;;;;;;7.57;2.63;;;;;;;-0.97;100.00;101120.59;5071666;28;20188;-64
2023/03/28 04:30:52;;;;;;;6.47;2.50;;;;;;;-1.00;100.00;101115.53;5051045;28;20236;-60
2023/03/28 04:33:17;;;;;;;7.33;2.70;;;;;;;-1.06;100.00;101118.84;5056580;28;20252;-61
2023/03/28 04:35:42;;;;;;;10.27;2.40;;;;;;;-1.15;100.00;101123.81;5070800;28;20267;-58
2023/03/28 04:38:08;;;;;;;9.13;3.03;;;;;;;-1.15;100.00;101121.28;5072065;28;20662;-59
2023/03/28 04:40:33;;;;;;;10.70;3.27;;;;;;;-1.12;100.00;101123.84;5063195;28;20231;-59
2023/03/28 04:42:59;;;;;;;7.53;3.10;;;;;;;-1.15;100.00;101122.13;5082472;28;20612;-60
2023/03/28 04:45:25;;;;;;;8.57;2.47;;;;;;;-1.21;100.00;101126.28;5063940;28;20235;-61
2023/03/28 04:47:50;;;;;;;13.77;2.90;;;;;;;-1.21;100.00;101127.09;5065719;28;20550;-59
2023/03/28 04:50:16;;;;;;;8.27;2.30;;;;;;;-1.26;100.00;101123.69;5063256;28;20254;-59
2023/03/28 04:52:41;;;;;;;7.77;2.73;;;;;;;-1.32;100.00;101137.09;5084716;28;20187;-59
2023/03/28 04:55:09;;;;;;;7.80;2.60;;;;;;;-1.33;100.00;101132.88;5071666;28;20169;-59
2023/03/28 04:57:35;;;;;;;5.83;2.53;;;;;;;-1.36;100.00;101134.53;5070219;28;20204;-61
2023/03/28 05:00:04;;;;;;;7.43;2.43;;;;;;;-1.34;100.00;101135.38;5063297;28;20189;-59
2023/03/28 05:02:29;;;;;;;8.53;2.80;;;;;;;-1.37;100.00;101135.34;5025843;28;20221;-60
2023/03/28 05:04:55;;;;;;;10.13;3.13;;;;;;;-1.35;100.00;101144.63;5070408;28;20735;-58
2023/03/28 05:07:20;;;;;;;4.73;2.40;;;;;;;-1.38;100.00;101149.63;5071499;28;20179;-61
2023/03/28 05:09:45;;;;;;;7.37;2.70;;;;;;;-1.32;100.00;101148.88;5069711;28;20227;-59
2023/03/28 05:12:11;;;;;;;7.37;2.20;;;;;;;-1.31;100.00;101153.09;5076128;28;20300;-59
2023/03/28 05:14:36;;;;;;;13.67;3.40;;;;;;;-1.31;100.00;101156.44;5063828;28;20565;-59
2023/03/28 05:17:01;;;;;;;9.40;2.77;;;;;;;-1.25;100.00;101159.88;5064695;28;20218;-66
2023/03/28 05:19:26;;;;;;;9.30;2.30;;;;;;;-1.31;100.00;101160.66;5071821;28;20187;-59
2023/03/28 05:21:52;;;;;;;9.00;2.93;;;;;;;-1.34;100.00;101166.53;5075101;28;20220;-60
2023/03/28 05:24:17;;;;;;;4.87;2.30;;;;;;;-1.44;100.00;101168.91;5072368;28;20200;-59
2023/03/28 05:26:42;;;;;;;9.43;2.97;;;;;;;-1.40;100.00;101171.50;5071066;28;20259;-63
2023/03/28 05:29:08;;;;;;;4.80;2.60;;;;;;;-1.41;100.00;101172.31;5070857;28;20180;-58
2023/03/28 05:31:33;;;;;;;7.80;2.93;;;;;;;-1.26;100.00;101173.34;5072750;28;20239;-60
2023/03/28 05:33:58;;;;;;;10.13;2.97;;;;;;;-1.23;100.00;101174.19;5073974;28;20183;-59
2023/03/28 05:36:24;;;;;;;9.83;2.67;;;;;;;-1.21;100.00;101180.13;5071065;28;20185;-59
2023/03/28 05:38:49;;;;;;;6.90;2.93;;;;;;;-1.21;100.00;101181.81;5071125;28;20549;-62
2023/03/28 05:41:15;;;;;;;8.63;2.70;;;;;;;-1.18;100.00;101184.38;5061838;28;20236;-60
2023/03/28 05:43:40;;;;;;;6.47;3.50;;;;;;;-1.17;100.00;101186.91;5076332;28;20238;-59
2023/03/28 05:46:06;;;;;;;5.23;3.00;;;;;;;-1.14;100.00;101194.53;5071153;28;20187;-59
2023/03/28 05:48:31;;;;;;;11.17;3.20;;;;;;;-1.20;100.00;101193.63;5070206;28;20268;-60
2023/03/28 05:50:56;;;;;;;6.67;2.73;;;;;;;-1.02;100.00;101196.34;5066120;28;20280;-61
2023/03/28 05:53:22;;;;;;;13.17;2.90;;;;;;;-0.98;100.00;101198.06;5078701;28;20184;-60
2023/03/28 05:55:48;;;;;;;8.27;2.93;;;;;;;-0.83;100.00;101197.38;5072406;28;20235;-60
2023/03/28 05:58:13;;;;;;;11.10;3.10;;;;;;;-0.77;100.00;101201.66;5069467;28;20553;-60
2023/03/28 06:00:39;;;;;;;6.23;3.50;;;;;;;-0.74;100.00;101201.69;5068461;28;20300;-63
2023/03/28 06:03:06;;;;;;;6.10;2.87;;;;;;;-0.62;100.00;101200.97;5084785;28;20277;-61
2023/03/28 06:05:31;;;;;;;4.90;2.50;;;;;;;-0.51;100.00;101199.38;5073317;28;20200;-60
2023/03/28 06:07:56;;;;;;;7.63;3.53;;;;;;;-0.42;100.00;101197.72;5074599;28;20671;-60
2023/03/28 06:10:23;;;;;;;10.30;2.80;;;;;;;-0.31;100.00;101197.84;5066158;28;20704;-61
2023/03/28 06:12:48;;;;;;;5.17;3.13;;;;;;;-0.21;100.00;101197.06;5087352;28;20601;-60
2023/03/28 06:15:13;;;;;;;8.80;2.67;;;;;;;-0.15;100.00;101198.81;5062440;28;20185;-61
2023/03/28 06:17:38;;;;;;;8.13;2.97;;;;;;;0.02;100.00;101201.47;5073048;28;20555;-60
2023/03/28 06:20:05;;;;;;;12.27;2.87;;;;;;;0.20;100.00;101199.06;5070141;28;20184;-61
2023/03/28 06:22:31;;;;;;;8.53;3.60;;;;;;;0.30;100.00;101197.41;5061044;28;20536;-61
2023/03/28 06:24:56;;;;;;;6.73;3.30;;;;;;;0.45;100.00;101197.47;5071675;28;20211;-61
2023/03/28 06:27:21;;;;;;;10.77;3.00;;;;;;;0.59;100.00;101200.06;5072838;28;20659;-62
2023/03/28 06:29:46;;;;;;;7.87;2.80;;;;;;;0.77;100.00;101203.50;5070461;28;20174;-60
2023/03/28 06:32:12;;;;;;;5.13;2.83;;;;;;;0.75;100.00;101203.53;5070584;28;20227;-59
2023/03/28 06:34:37;;;;;;;10.67;3.00;;;;;;;0.92;100.00;101213.72;5060298;28;20189;-59
2023/03/28 06:37:02;;;;;;;8.77;2.77;;;;;;;1.04;100.00;101209.53;5061439;28;20185;-60
2023/03/28 06:39:28;;;;;;;7.93;2.67;;;;;;;1.23;100.00;101197.75;5065164;28;20624;-60
2023/03/28 06:41:53;;;;;;;6.57;3.20;;;;;;;1.43;100.00;101203.69;5075338;28;20766;-72
2023/03/28 06:44:18;;;;;;;12.70;2.93;;;;;;;1.68;100.00;101201.16;5063090;28;20217;-59
2023/03/28 06:46:44;;;;;;;6.37;2.60;;;;;;;1.89;100.00;101196.94;5070699;28;20234;-60
2023/03/28 06:49:09;;;;;;;12.47;3.40;;;;;;;2.59;100.00;101197.59;5073728;28;20655;-60
2023/03/28 06:51:34;;;;;;;5.27;2.83;;;;;;;3.63;100.00;101195.28;5074898;28;20237;-61
2023/03/28 06:54:00;;;;;;;7.73;3.03;;;;;;;4.56;100.00;101191.00;5076103;28;20183;-59
2023/03/28 06:56:25;;;;;;;7.90;2.93;;;;;;;6.08;100.00;101190.44;5072870;28;20624;-59
2023/03/28 06:58:50;;;;;;;7.60;2.40;;;;;;;7.87;92.68;101182.25;5073339;28;20181;-60
2023/03/28 07:01:16;;;;;;;6.23;2.47;;;;;;;10.06;69.36;101182.53;5051123;28;20641;-61
2023/03/28 07:03:41;;;;;;;5.13;2.40;;;;;;;11.11;58.19;101188.97;5065250;28;20208;-59
2023/03/28 07:06:09;;;;;;;3.93;2.03;;;;;;;12.42;52.14;101189.56;5072188;28;20192;-59
2023/03/28 07:08:35;;;;;;;5.80;2.33;;;;;;;12.67;49.97;101191.88;5066886;28;20300;-60
2023/03/28 07:11:00;;;;;;;6.70;2.73;;;;;;;14.30;45.47;101191.72;5063703;28;20227;-60
2023/03/28 07:13:26;;;;;;;6.93;2.37;;;;;;;14.90;41.69;101195.47;5081283;28;20519;-60
2023/03/28 07:16:06;;;;;;;9.07;2.70;;;;;;;15.77;39.66;101193.97;5055863;28;20512;-59
2023/03/28 07:18:32;;;;;;;7.23;2.27;;;;;;;16.54;38.56;101191.94;5071813;28;20647;-59
2023/03/28 07:20:58;;;;;;;5.97;2.47;;;;;;;17.49;36.19;101209.34;5064424;28;20222;-59
2023/03/28 07:23:23;;;;;;;9.37;2.50;;;;;;;16.58;35.82;101208.16;5080948;28;20395;-59
2023/03/28 07:25:48;;;;;;;5.57;2.30;;;;;;;15.57;37.11;101208.13;5072849;28;20969;-59
2023/03/28 07:28:13;;;;;;;7.67;2.20;;;;;;;16.90;36.89;101207.91;5073054;28;20708;-61
2023/03/28 07:30:39;;;;;;;6.73;2.43;;;;;;;18.27;33.40;101213.69;5034134;28;20242;-59
2023/03/28 07:33:05;;;;;;;11.07;2.47;;;;;;;17.24;34.68;101221.34;5044230;28;20189;-62
2023/03/28 07:35:30;;;;;;;5.17;2.37;;;;;;;16.97;34.10;101227.41;5052306;28;20177;-61
2023/03/28 07:37:57;;;;;;;6.80;2.37;;;;;;;16.09;36.42;101225.81;5061696;28;20182;-60
2023/03/28 07:40:22;;;;;;;9.40;2.50;;;;;;;16.98;34.62;101233.44;5044313;28;20275;-60
2023/03/28 07:42:48;;;;;;;7.37;2.50;;;;;;;17.82;34.08;101241.88;5068449;28;20582;-60
2023/03/28 07:45:14;;;;;;;8.03;2.73;;;;;;;17.46;34.44;101236.41;5068113;28;20653;-63
2023/03/28 07:47:39;;;;;;;6.57;2.23;;;;;;;17.69;34.05;101239.28;5045725;28;20193;-61
2023/03/28 07:50:05;;;;;;;8.33;2.33;;;;;;;18.36;33.21;101233.88;5041056;28;20182;-60
2023/03/28 07:52:31;;;;;;;7.03;2.17;;;;;;;18.84;32.44;101242.69;5065505;28;20197;-60
2023/03/28 07:54:56;;;;;;;8.23;2.47;;;;;;;18.36;32.21;101240.84;5052411;28;20620;-63
2023/03/28 07:57:21;;;;;;;6.20;2.17;;;;;;;17.78;33.31;101248.22;5051177;28;20185;-64
2023/03/28 07:59:49;;;;;;;10.77;2.80;;;;;;;16.37;34.74;101242.34;5051397;28;20189;-60
2023/03/28 08:02:14;;;;;;;7.97;2.53;;;;;;;16.24;36.08;101242.22;5067530;28;20909;-61
2023/03/28 08:04:40;;;;;;;6.47;2.60;;;;;;;17.12;34.90;101246.41;5041140;28;20209;-61
2023/03/28 08:07:06;;;;;;;7.77;2.37;;;;;;;16.34;35.52;101254.66;5069948;28;20660;-61
2023/03/28 08:09:32;;;;;;;5.97;2.00;;;;;;;16.77;35.33;101255.47;5050222;28;20641;-60
2023/03/28 08:11:57;;;;;;;5.40;2.00;;;;;;;16.80;35.17;101251.84;5070870;28;20215;-60
2023/03/28 08:14:22;;;;;;;10.40;2.53;;;;;;;17.22;34.57;101259.66;5047674;28;20186;-58
2023/03/28 08:16:47;;;;;;;6.87;2.17;;;;;;;17.34;33.51;101256.25;5043929;28;20212;-60
2023/03/28 08:19:13;;;;;;;6.40;2.57;;;;;;;17.06;35.61;101254.59;5050981;28;20212;-60
2023/03/28 08:21:38;;;;;;;7.67;2.50;;;;;;;17.33;33.79;101253.72;5065914;28;20629;-59
2023/03/28 08:24:06;;;;;;;7.03;2.50;;;;;;;16.37;34.36;101257.06;5037773;28;20213;-59
2023/03/28 08:26:31;;;;;;;8.30;2.10;;;;;;;16.77;33.40;101252.03;5031675;28;20247;-60
2023/03/28 08:29:00;;;;;;;6.53;2.37;;;;;;;15.91;34.44;101250.25;5050704;28;20596;-59
2023/03/28 08:31:27;;;;;;;5.43;2.23;;;;;;;14.71;35.51;101262.94;5048279;28;20243;-60
2023/03/28 08:33:54;;;;;;;9.10;2.20;;;;;;;15.56;35.36;101253.13;5041631;28;20173;-59
2023/03/28 08:36:21;;;;;;;9.00;2.00;;;;;;;16.96;34.60;101254.34;5047627;28;20196;-62
2023/03/28 08:38:50;;;;;;;8.03;2.40;;;;;;;17.93;31.79;101255.00;5080788;28;20770;-60
2023/03/28 08:41:32;;;;;;;4.90;2.07;;;;;;;15.84;34.90;101254.13;5059760;28;20692;-60
2023/03/28 08:44:24;;;;;;;6.03;2.03;;;;;;;13.38;38.08;101260.06;5050008;28;20208;-59
2023/03/28 08:46:56;;;;;;;8.03;2.53;;;;;;;12.60;40.50;101265.31;5047580;28;20203;-59
2023/03/28 08:49:22;;;;;;;10.53;2.10;;;;;;;12.07;42.02;101264.19;5065471;28;20181;-59
2023/03/28 08:51:55;;;;;;;6.13;1.73;;;;;;;12.86;41.26;101269.34;5055907;28;20218;-60
2023/03/28 08:54:45;;;;;;;9.27;2.50;;;;;;;13.63;39.19;101264.91;5049873;28;20196;-67
2023/03/28 08:57:23;;;;;;;5.87;2.13;;;;;;;14.35;37.97;101260.44;5047847;28;20613;-61
2023/03/28 09:00:22;;;;;;;4.17;1.63;;;;;;;15.06;35.87;101263.66;5050287;28;20268;-62
2023/03/28 09:02:48;;;;;;;4.30;1.67;;;;;;;14.72;37.08;101264.63;5019216;28;20221;-60
2023/03/28 09:05:28;;;;;;;9.07;2.40;;;;;;;13.03;40.12;101265.97;5049313;28;20272;-60
2023/03/28 09:07:59;;;;;;;11.47;2.33;;;;;;;14.40;37.50;101257.63;5049255;28;20204;-60
2023/03/28 09:10:42;;;;;;;5.17;2.10;;;;;;;15.31;37.28;101257.91;5044458;28;20227;-61
2023/03/28 09:13:20;;;;;;;5.63;1.90;;;;;;;18.11;32.94;101245.16;5046540;28;20232;-64
2023/03/28 09:16:01;;;;;;;7.27;2.10;;;;;;;17.61;32.52;101254.53;5054401;28;20224;-59
2023/03/28 09:19:01;;;;;;;6.80;2.40;;;;;;;18.85;31.54;101250.44;5049783;28;20189;-60
2023/03/28 09:21:52;;;;;;;7.13;2.03;;;;;;;19.06;30.25;101247.25;5013471;28;20237;-60
2023/03/28 09:24:27;;;;;;;5.27;1.90;;;;;;;19.57;29.69;101248.75;5061385;28;20221;-59
2023/03/28 09:27:04;;;;;;;5.63;1.83;;;;;;;19.10;29.96;101253.06;5051328;28;20181;-64
2023/03/28 09:29:33;;;;;;;4.27;1.90;;;;;;;20.35;27.07;101250.78;5061210;28;20270;-60
2023/03/28 09:32:03;;;;;;;6.05;2.20;;;;;;;20.16;27.02;101253.03;5048098;28;20455;-67
2023/03/28 09:34:36;;;;;;;5.80;1.70;;;;;;;17.25;29.88;101264.63;5054650;28;20193;-59
2023/03/28 09:37:27;;;;;;;5.57;1.83;;;;;;;14.93;33.38;101260.88;5083028;28;20265;-60
2023/03/28 09:39:56;;;;;;;3.63;1.53;;;;;;;14.75;33.08;101259.28;5018594;28;20209;-60
2023/03/28 09:42:44;;;;;;;6.10;1.43;;;;;;;14.21;34.83;101249.97;5066666;28;20623;-65
2023/03/28 09:45:35;;;;;;;5.63;2.07;;;;;;;14.94;35.02;101253.94;5053579;28;20566;-61
2023/03/28 09:48:06;;;;;;;6.13;2.30;;;;;;;15.36;34.54;101247.31;5046285;28;20574;-61
2023/03/28 09:50:31;;;;;;;7.10;1.93;;;;;;;17.19;31.88;101244.22;5050182;28;20216;-61
2023/03/28 09:52:57;;;;;;;5.83;2.10;;;;;;;18.14;29.72;101241.50;5072152;28;20212;-61
2023/03/28 09:55:26;;;;;;;8.37;2.07;;;;;;;18.04;28.41;101231.69;5051854;28;20623;-60
2023/03/28 09:58:08;;;;;;;4.97;2.10;;;;;;;15.52;31.93;101242.09;5051772;28;20196;-60
2023/03/28 10:00:41;;;;;;;4.00;2.00;;;;;;;14.46;32.67;101234.00;5046475;28;20236;-60
2023/03/28 10:03:28;;;;;;;3.50;1.63;;;;;;;14.32;35.09;101233.88;5041121;28;20196;-60
2023/03/28 10:05:54;;;;;;;4.33;1.70;;;;;;;13.87;31.51;101233.59;5054367;28;20181;-61
2023/03/28 10:08:39;;;;;;;4.43;1.63;;;;;;;14.24;33.52;101223.94;5068634;28;20755;-62
2023/03/28 10:11:12;;;;;;;3.13;1.50;;;;;;;14.94;31.63;101233.22;5054653;28;20753;-61
2023/03/28 10:13:47;;;;;;;7.07;2.13;;;;;;;15.08;32.91;101222.09;5067295;28;20209;-60
2023/03/28 10:16:18;;;;;;;5.67;1.60;;;;;;;12.66;33.58;101231.50;5057709;28;20184;-61
2023/03/28 10:18:44;;;;;;;5.47;1.80;;;;;;;12.51;36.95;101232.19;5065405;28;20194;-59
2023/03/28 10:21:24;;;;;;;4.10;1.83;;;;;;;12.45;37.13;101232.47;5059384;28;20232;-60
2023/03/28 10:23:58;;;;;;;3.30;1.70;;;;;;;11.90;36.41;101233.91;5047787;28;20325;-61
2023/03/28 10:26:25;;;;;;;5.40;1.83;;;;;;;12.27;35.70;101225.47;5039647;28;20174;-63
2023/03/28 10:28:53;;;;;;;4.60;1.40;;;;;;;12.62;34.88;101227.38;5038338;28;20181;-61
2023/03/28 10:31:30;;;;;;;4.33;1.57;;;;;;;15.08;32.61;101219.50;5040065;28;20295;-63
2023/03/28 10:33:58;;;;;;;3.43;1.50;;;;;;;16.88;30.71;101215.81;5057426;28;20197;-61
2023/03/28 10:36:31;;;;;;;4.30;1.67;;;;;;;15.65;31.83;101216.25;5052477;28;20292;-60
2023/03/28 10:38:58;;;;;;;3.97;1.27;;;;;;;14.10;32.17;101219.44;5053850;28;20192;-60
2023/03/28 10:41:26;;;;;;;2.73;1.30;;;;;;;11.11;35.96;101231.91;5044183;28;20224;-62
2023/03/28 10:43:52;;;;;;;2.93;1.60;;;;;;;11.37;37.81;101220.56;5048686;28;20288;-60
2023/03/28 10:46:35;;;;;;;3.73;1.40;;;;;;;10.95;38.75;101221.34;5050706;28;20500;-59
2023/03/28 10:49:02;;;;;;;5.83;1.77;;;;;;;11.24;39.95;101224.56;5047814;28;20193;-60
2023/03/28 10:51:30;;;;;;;5.37;1.70;;;;;;;11.22;39.93;101219.44;5046578;28;20316;-59
2023/03/28 10:54:01;;;;;;;5.43;1.90;;;;;;;10.79;40.57;101211.66;5051969;28;20220;-60
2023/03/28 10:56:40;;;;;;;4.63;1.73;;;;;;;10.49;39.92;101206.75;5053066;28;20181;-60
2023/03/28 10:59:15;;;;;;;3.57;1.53;;;;;;;10.56;41.54;101204.78;5052180;28;20219;-59
2023/03/28 11:02:05;;;;;;;3.63;1.40;;;;;;;10.53;44.14;101199.75;5032834;28;20224;-59
2023/03/28 11:04:45;;;;;;;3.00;1.63;;;;;;;9.56;41.34;101206.47;5072695;28;20212;-59
2023/03/28 11:07:19;;;;;;;6.80;1.40;;;;;;;9.61;44.51;101208.88;5073176;28;20635;-59
2023/03/28 11:09:54;;;;;;;5.70;1.40;;;;;;;9.20;43.15;101194.75;5070356;28;21224;-61
2023/03/28 11:12:31;;;;;;;5.90;1.43;;;;;;;9.39;42.38;101193.31;5057911;28;20219;-61
2023/03/28 11:15:03;;;;;;;4.70;1.20;;;;;;;9.63;42.84;101186.56;5042290;28;20228;-60
2023/03/28 11:17:44;;;;;;;6.37;1.60;;;;;;;9.75;40.06;101185.28;5058278;28;20216;-60
2023/03/28 11:20:42;;;;;;;6.83;1.43;;;;;;;9.78;41.19;101174.94;5062526;28;20188;-63
2023/03/28 11:23:25;;;;;;;4.23;1.50;;;;;;;10.08;42.12;101180.72;5069959;28;20268;-60
2023/03/28 11:26:07;;;;;;;3.50;1.80;;;;;;;10.56;38.90;101173.06;5070450;28;20523;-60
2023/03/28 11:28:45;;;;;;;3.10;1.40;;;;;;;10.26;39.41;101173.28;5070457;28;20176;-59
2023/03/28 11:31:16;;;;;;;3.60;1.50;;;;;;;10.02;40.10;101168.94;5039865;28;20318;-60
2023/03/28 11:34:04;;;;;;;3.27;1.57;;;;;;;9.85;39.93;101174.66;5056933;28;20279;-59
2023/03/28 11:36:49;;;;;;;5.87;1.23;;;;;;;10.17;41.40;101159.84;5070913;28;20647;-62
2023/03/28 11:39:30;;;;;;;4.73;1.70;;;;;;;10.32;40.83;101157.63;5069276;28;20192;-65
2023/03/28 11:42:00;;;;;;;5.55;2.00;;;;;;;10.64;40.26;101153.88;5074224;28;20453;-62